sensor_id;sensor_type;location;lat;lon;timestamp;temperature;humidity
3996;DHT22;2012;49.794;9.722;2023-07-13T00:01:54;20.30;99.90
3996;DHT22;2012;49.794;9.722;2023-07-13T00:04:23;20.40;99.90
3996;DHT22;2012;49.794;9.722;2023-07-13T00:06:52;20.20;99.90
3996;DHT22;2012;49.794;9.722;2023-07-13T00:09:20;20.20;99.90
3996;DHT22;2012;49.794;9.722;2023-07-13T00:11:53;20.40;99.90
3996;DHT22;2012;49.794;9.722;2023-07-13T00:14:20;20.10;99.90
3996;DHT22;2012;49.794;9.722;2023-07-13T00:16:48;20.20;99.90
3996;DHT22;2012;49.794;9.722;2023-07-13T00:19:15;20.30;99.90
3996;DHT22;2012;49.794;9.722;2023-07-13T00:21:42;20.40;99.90
3996;DHT22;2012;49.794;9.722;2023-07-13T00:24:11;20.10;99.90
3996;DHT22;2012;49.794;9.722;2023-07-13T00:26:42;20.10;99.90
3996;DHT22;2012;49.794;9.722;2023-07-13T00:29:14;20.10;99.90
3996;DHT22;2012;49.794;9.722;2023-07-13T00:31:41;20.00;99.90
3996;DHT22;2012;49.794;9.722;2023-07-13T00:34:08;19.70;99.90
3996;DHT22;2012;49.794;9.722;2023-07-13T00:36:35;19.60;99.90
3996;DHT22;2012;49.794;9.722;2023-07-13T00:39:02;19.70;99.90
3996;DHT22;2012;49.794;9.722;2023-07-13T00:41:31;19.70;99.90
3996;DHT22;2012;49.794;9.722;2023-07-13T00:43:58;19.80;99.90
3996;DHT22;2012;49.794;9.722;2023-07-13T00:46:28;19.70;99.90
3996;DHT22;2012;49.794;9.722;2023-07-13T00:49:01;19.60;99.90
3996;DHT22;2012;49.794;9.722;2023-07-13T00:51:44;19.40;99.90
3996;DHT22;2012;49.794;9.722;2023-07-13T00:54:15;19.30;99.90
3996;DHT22;2012;49.794;9.722;2023-07-13T00:56:45;19.30;99.90
3996;DHT22;2012;49.794;9.722;2023-07-13T00:59:15;19.30;99.90
3996;DHT22;2012;49.794;9.722;2023-07-13T01:01:42;19.30;99.90
3996;DHT22;2012;49.794;9.722;2023-07-13T01:04:10;19.30;99.90
3996;DHT22;2012;49.794;9.722;2023-07-13T01:06:37;19.20;99.90
3996;DHT22;2012;49.794;9.722;2023-07-13T01:09:07;19.10;99.90
3996;DHT22;2012;49.794;9.722;2023-07-13T01:11:34;19.00;99.90
3996;DHT22;2012;49.794;9.722;2023-07-13T01:14:02;19.10;99.90
3996;DHT22;2012;49.794;9.722;2023-07-13T01:16:34;19.10;99.90
3996;DHT22;2012;49.794;9.722;2023-07-13T01:19:06;19.00;99.90
3996;DHT22;2012;49.794;9.722;2023-07-13T01:21:35;19.00;99.90
3996;DHT22;2012;49.794;9.722;2023-07-13T01:24:02;19.10;99.90
3996;DHT22;2012;49.794;9.722;2023-07-13T01:26:29;18.80;99.90
3996;DHT22;2012;49.794;9.722;2023-07-13T01:28:57;18.70;99.90
3996;DHT22;2012;49.794;9.722;2023-07-13T01:31:24;18.70;99.90
3996;DHT22;2012;49.794;9.722;2023-07-13T01:33:51;18.70;99.90
3996;DHT22;2012;49.794;9.722;2023-07-13T01:36:20;18.50;99.90
3996;DHT22;2012;49.794;9.722;2023-07-13T01:38:48;18.50;99.90
3996;DHT22;2012;49.794;9.722;2023-07-13T01:41:15;18.50;99.90
3996;DHT22;2012;49.794;9.722;2023-07-13T01:43:42;18.40;99.90
3996;DHT22;2012;49.794;9.722;2023-07-13T01:46:08;18.50;99.90
3996;DHT22;2012;49.794;9.722;2023-07-13T01:48:42;18.40;99.90
3996;DHT22;2012;49.794;9.722;2023-07-13T01:51:09;18.40;99.90
3996;DHT22;2012;49.794;9.722;2023-07-13T01:53:36;18.20;99.90
3996;DHT22;2012;49.794;9.722;2023-07-13T01:56:03;18.30;99.90
3996;DHT22;2012;49.794;9.722;2023-07-13T01:58:30;18.20;99.90
3996;DHT22;2012;49.794;9.722;2023-07-13T02:00:57;18.10;99.90
3996;DHT22;2012;49.794;9.722;2023-07-13T02:03:24;18.00;99.90
3996;DHT22;2012;49.794;9.722;2023-07-13T02:05:51;18.00;99.90
3996;DHT22;2012;49.794;9.722;2023-07-13T02:08:18;18.10;99.90
3996;DHT22;2012;49.794;9.722;2023-07-13T02:10:46;18.20;99.90
3996;DHT22;2012;49.794;9.722;2023-07-13T02:13:14;18.20;99.90
3996;DHT22;2012;49.794;9.722;2023-07-13T02:15:41;18.20;99.90
3996;DHT22;2012;49.794;9.722;2023-07-13T02:18:08;18.10;99.90
3996;DHT22;2012;49.794;9.722;2023-07-13T02:20:35;18.10;99.90
3996;DHT22;2012;49.794;9.722;2023-07-13T02:23:02;18.20;99.90
3996;DHT22;2012;49.794;9.722;2023-07-13T02:25:30;18.20;99.90
3996;DHT22;2012;49.794;9.722;2023-07-13T02:27:57;18.10;99.90
3996;DHT22;2012;49.794;9.722;2023-07-13T02:30:24;18.00;99.90
3996;DHT22;2012;49.794;9.722;2023-07-13T02:32:53;17.90;99.90
3996;DHT22;2012;49.794;9.722;2023-07-13T02:35:21;17.90;99.90
3996;DHT22;2012;49.794;9.722;2023-07-13T02:37:48;17.90;99.90
3996;DHT22;2012;49.794;9.722;2023-07-13T02:40:15;17.80;99.90
3996;DHT22;2012;49.794;9.722;2023-07-13T02:42:42;17.40;99.90
3996;DHT22;2012;49.794;9.722;2023-07-13T02:45:09;17.50;99.90
3996;DHT22;2012;49.794;9.722;2023-07-13T02:47:36;17.60;99.90
3996;DHT22;2012;49.794;9.722;2023-07-13T02:50:04;17.50;99.90
3996;DHT22;2012;49.794;9.722;2023-07-13T02:52:31;17.50;99.90
3996;DHT22;2012;49.794;9.722;2023-07-13T02:54:58;17.60;99.90
3996;DHT22;2012;49.794;9.722;2023-07-13T02:57:26;17.40;99.90
3996;DHT22;2012;49.794;9.722;2023-07-13T02:59:54;17.40;99.90
3996;DHT22;2012;49.794;9.722;2023-07-13T03:02:22;17.40;99.90
3996;DHT22;2012;49.794;9.722;2023-07-13T03:04:49;17.40;99.90
3996;DHT22;2012;49.794;9.722;2023-07-13T03:07:16;17.40;99.90
3996;DHT22;2012;49.794;9.722;2023-07-13T03:09:46;17.40;99.90
3996;DHT22;2012;49.794;9.722;2023-07-13T03:12:13;17.40;99.90
3996;DHT22;2012;49.794;9.722;2023-07-13T03:14:40;17.30;99.90
3996;DHT22;2012;49.794;9.722;2023-07-13T03:17:08;17.20;99.90
3996;DHT22;2012;49.794;9.722;2023-07-13T03:19:38;17.10;99.90
3996;DHT22;2012;49.794;9.722;2023-07-13T03:22:05;17.20;99.90
3996;DHT22;2012;49.794;9.722;2023-07-13T03:24:34;17.20;99.90
3996;DHT22;2012;49.794;9.722;2023-07-13T03:27:06;17.30;99.90
3996;DHT22;2012;49.794;9.722;2023-07-13T03:29:36;17.10;99.90
3996;DHT22;2012;49.794;9.722;2023-07-13T03:32:04;17.20;99.90
3996;DHT22;2012;49.794;9.722;2023-07-13T03:34:32;17.10;99.90
3996;DHT22;2012;49.794;9.722;2023-07-13T03:36:59;16.90;99.90
3996;DHT22;2012;49.794;9.722;2023-07-13T03:39:27;17.00;99.90
3996;DHT22;2012;49.794;9.722;2023-07-13T03:41:56;17.00;99.90
3996;DHT22;2012;49.794;9.722;2023-07-13T03:44:23;16.90;99.90
3996;DHT22;2012;49.794;9.722;2023-07-13T03:46:55;16.90;99.90
3996;DHT22;2012;49.794;9.722;2023-07-13T03:49:22;16.90;99.90
3996;DHT22;2012;49.794;9.722;2023-07-13T03:51:50;17.00;99.90
3996;DHT22;2012;49.794;9.722;2023-07-13T03:54:20;16.90;99.90
3996;DHT22;2012;49.794;9.722;2023-07-13T03:56:47;16.80;99.90
3996;DHT22;2012;49.794;9.722;2023-07-13T03:59:15;16.90;99.90
3996;DHT22;2012;49.794;9.722;2023-07-13T04:01:43;16.90;99.90
3996;DHT22;2012;49.794;9.722;2023-07-13T04:04:12;16.90;99.90
3996;DHT22;2012;49.794;9.722;2023-07-13T04:06:39;16.90;99.90
3996;DHT22;2012;49.794;9.722;2023-07-13T04:09:06;16.90;99.90
3996;DHT22;2012;49.794;9.722;2023-07-13T04:11:33;16.90;99.90
3996;DHT22;2012;49.794;9.722;2023-07-13T04:14:00;17.00;99.90
3996;DHT22;2012;49.794;9.722;2023-07-13T04:16:28;17.00;99.90
3996;DHT22;2012;49.794;9.722;2023-07-13T04:18:55;17.20;99.90
3996;DHT22;2012;49.794;9.722;2023-07-13T04:21:28;18.60;99.90
3996;DHT22;2012;49.794;9.722;2023-07-13T04:23:55;18.90;99.90
3996;DHT22;2012;49.794;9.722;2023-07-13T04:26:23;18.80;99.90
3996;DHT22;2012;49.794;9.722;2023-07-13T04:28:51;19.20;99.90
3996;DHT22;2012;49.794;9.722;2023-07-13T04:31:19;19.50;99.90
3996;DHT22;2012;49.794;9.722;2023-07-13T04:33:46;19.60;99.90
3996;DHT22;2012;49.794;9.722;2023-07-13T04:36:15;19.60;99.90
3996;DHT22;2012;49.794;9.722;2023-07-13T04:38:42;19.70;99.90
3996;DHT22;2012;49.794;9.722;2023-07-13T04:41:09;19.70;99.90
3996;DHT22;2012;49.794;9.722;2023-07-13T04:43:36;19.20;99.90
3996;DHT22;2012;49.794;9.722;2023-07-13T04:46:09;18.70;99.90
3996;DHT22;2012;49.794;9.722;2023-07-13T04:48:38;18.60;99.90
3996;DHT22;2012;49.794;9.722;2023-07-13T04:51:05;18.60;99.90
3996;DHT22;2012;49.794;9.722;2023-07-13T04:53:33;18.50;99.90
3996;DHT22;2012;49.794;9.722;2023-07-13T04:56:02;18.40;99.90
3996;DHT22;2012;49.794;9.722;2023-07-13T04:58:29;18.30;99.90
3996;DHT22;2012;49.794;9.722;2023-07-13T05:01:05;18.30;99.90
3996;DHT22;2012;49.794;9.722;2023-07-13T05:03:32;18.20;99.90
3996;DHT22;2012;49.794;9.722;2023-07-13T05:06:03;18.10;99.90
3996;DHT22;2012;49.794;9.722;2023-07-13T05:08:31;18.10;99.90
3996;DHT22;2012;49.794;9.722;2023-07-13T05:11:00;18.00;99.90
3996;DHT22;2012;49.794;9.722;2023-07-13T05:13:27;18.10;99.90
3996;DHT22;2012;49.794;9.722;2023-07-13T05:16:01;18.30;99.90
3996;DHT22;2012;49.794;9.722;2023-07-13T05:18:29;18.60;99.90
3996;DHT22;2012;49.794;9.722;2023-07-13T05:21:06;18.70;99.90
3996;DHT22;2012;49.794;9.722;2023-07-13T05:23:34;18.90;99.90
3996;DHT22;2012;49.794;9.722;2023-07-13T05:26:01;18.70;99.90
3996;DHT22;2012;49.794;9.722;2023-07-13T05:28:29;18.80;99.90
3996;DHT22;2012;49.794;9.722;2023-07-13T05:30:57;18.80;99.90
3996;DHT22;2012;49.794;9.722;2023-07-13T05:33:25;18.70;99.90
3996;DHT22;2012;49.794;9.722;2023-07-13T05:35:52;18.70;99.90
3996;DHT22;2012;49.794;9.722;2023-07-13T05:38:20;18.70;99.90
3996;DHT22;2012;49.794;9.722;2023-07-13T05:40:47;18.80;99.90
3996;DHT22;2012;49.794;9.722;2023-07-13T05:43:14;18.80;99.90
3996;DHT22;2012;49.794;9.722;2023-07-13T05:45:42;18.80;99.90
3996;DHT22;2012;49.794;9.722;2023-07-13T05:48:08;18.90;99.90
3996;DHT22;2012;49.794;9.722;2023-07-13T05:50:35;18.90;99.90
3996;DHT22;2012;49.794;9.722;2023-07-13T05:53:03;18.90;99.90
3996;DHT22;2012;49.794;9.722;2023-07-13T05:55:29;18.90;99.90
3996;DHT22;2012;49.794;9.722;2023-07-13T05:57:56;19.00;99.90
3996;DHT22;2012;49.794;9.722;2023-07-13T06:00:25;19.00;99.90
3996;DHT22;2012;49.794;9.722;2023-07-13T06:02:52;18.90;99.90
3996;DHT22;2012;49.794;9.722;2023-07-13T06:05:19;19.00;99.90
3996;DHT22;2012;49.794;9.722;2023-07-13T06:07:46;19.00;99.90
3996;DHT22;2012;49.794;9.722;2023-07-13T06:10:13;19.10;99.90
3996;DHT22;2012;49.794;9.722;2023-07-13T06:12:40;19.30;99.90
3996;DHT22;2012;49.794;9.722;2023-07-13T06:15:07;19.30;99.90
3996;DHT22;2012;49.794;9.722;2023-07-13T06:17:34;19.30;99.90
3996;DHT22;2012;49.794;9.722;2023-07-13T06:20:01;19.30;99.90
3996;DHT22;2012;49.794;9.722;2023-07-13T06:22:28;19.30;99.90
3996;DHT22;2012;49.794;9.722;2023-07-13T06:24:55;19.30;99.90
3996;DHT22;2012;49.794;9.722;2023-07-13T06:27:22;19.50;99.90
3996;DHT22;2012;49.794;9.722;2023-07-13T06:29:49;19.50;99.90
3996;DHT22;2012;49.794;9.722;2023-07-13T06:32:17;19.50;99.90
3996;DHT22;2012;49.794;9.722;2023-07-13T06:34:44;19.50;99.90
3996;DHT22;2012;49.794;9.722;2023-07-13T06:37:11;19.50;99.90
3996;DHT22;2012;49.794;9.722;2023-07-13T06:39:38;19.60;99.90
3996;DHT22;2012;49.794;9.722;2023-07-13T06:42:05;19.50;99.90
3996;DHT22;2012;49.794;9.722;2023-07-13T06:44:32;19.50;99.90
3996;DHT22;2012;49.794;9.722;2023-07-13T06:46:59;19.50;99.90
3996;DHT22;2012;49.794;9.722;2023-07-13T06:49:26;19.50;99.90
3996;DHT22;2012;49.794;9.722;2023-07-13T06:51:53;19.50;99.90
3996;DHT22;2012;49.794;9.722;2023-07-13T06:54:21;19.60;99.90
3996;DHT22;2012;49.794;9.722;2023-07-13T06:56:48;19.90;99.90
3996;DHT22;2012;49.794;9.722;2023-07-13T06:59:14;20.00;99.90
3996;DHT22;2012;49.794;9.722;2023-07-13T07:01:41;20.10;99.90
3996;DHT22;2012;49.794;9.722;2023-07-13T07:04:08;20.20;99.90
3996;DHT22;2012;49.794;9.722;2023-07-13T07:06:35;20.20;99.90
3996;DHT22;2012;49.794;9.722;2023-07-13T07:09:03;20.00;99.90
3996;DHT22;2012;49.794;9.722;2023-07-13T07:11:30;20.40;99.90
3996;DHT22;2012;49.794;9.722;2023-07-13T07:13:56;20.50;99.90
3996;DHT22;2012;49.794;9.722;2023-07-13T07:16:24;20.60;99.90
3996;DHT22;2012;49.794;9.722;2023-07-13T07:18:52;20.90;99.90
3996;DHT22;2012;49.794;9.722;2023-07-13T07:21:19;21.00;99.90
3996;DHT22;2012;49.794;9.722;2023-07-13T07:23:46;20.90;99.90
3996;DHT22;2012;49.794;9.722;2023-07-13T07:26:13;21.00;99.90
3996;DHT22;2012;49.794;9.722;2023-07-13T07:28:40;20.90;99.90
3996;DHT22;2012;49.794;9.722;2023-07-13T07:31:11;21.20;99.90
3996;DHT22;2012;49.794;9.722;2023-07-13T07:33:41;21.30;98.90
3996;DHT22;2012;49.794;9.722;2023-07-13T07:36:08;21.30;97.20
3996;DHT22;2012;49.794;9.722;2023-07-13T07:38:38;21.20;95.70
3996;DHT22;2012;49.794;9.722;2023-07-13T07:41:06;21.30;95.30
3996;DHT22;2012;49.794;9.722;2023-07-13T07:43:35;21.30;94.70
3996;DHT22;2012;49.794;9.722;2023-07-13T07:46:03;21.40;94.40
3996;DHT22;2012;49.794;9.722;2023-07-13T07:48:30;21.60;94.50
3996;DHT22;2012;49.794;9.722;2023-07-13T07:50:57;21.60;95.10
3996;DHT22;2012;49.794;9.722;2023-07-13T07:53:25;21.60;93.80
3996;DHT22;2012;49.794;9.722;2023-07-13T07:55:51;21.70;94.20
3996;DHT22;2012;49.794;9.722;2023-07-13T07:58:21;21.80;95.40
3996;DHT22;2012;49.794;9.722;2023-07-13T08:00:51;22.00;94.70
3996;DHT22;2012;49.794;9.722;2023-07-13T08:03:21;22.10;94.20
3996;DHT22;2012;49.794;9.722;2023-07-13T08:05:54;22.20;93.00
3996;DHT22;2012;49.794;9.722;2023-07-13T08:08:24;22.20;93.60
3996;DHT22;2012;49.794;9.722;2023-07-13T08:10:51;22.10;92.10
3996;DHT22;2012;49.794;9.722;2023-07-13T08:13:23;21.90;91.90
3996;DHT22;2012;49.794;9.722;2023-07-13T08:15:50;21.80;92.20
3996;DHT22;2012;49.794;9.722;2023-07-13T08:18:17;21.80;91.80
3996;DHT22;2012;49.794;9.722;2023-07-13T08:20:44;21.80;92.10
3996;DHT22;2012;49.794;9.722;2023-07-13T08:23:11;22.00;92.40
3996;DHT22;2012;49.794;9.722;2023-07-13T08:25:38;22.20;92.60
3996;DHT22;2012;49.794;9.722;2023-07-13T08:28:05;22.30;91.70
3996;DHT22;2012;49.794;9.722;2023-07-13T08:30:32;22.40;92.20
3996;DHT22;2012;49.794;9.722;2023-07-13T08:32:59;22.60;92.70
3996;DHT22;2012;49.794;9.722;2023-07-13T08:35:26;22.50;90.80
3996;DHT22;2012;49.794;9.722;2023-07-13T08:37:53;22.40;91.30
3996;DHT22;2012;49.794;9.722;2023-07-13T08:40:24;22.40;90.80
3996;DHT22;2012;49.794;9.722;2023-07-13T08:42:57;22.60;90.30
3996;DHT22;2012;49.794;9.722;2023-07-13T08:48:53;22.50;88.00
3996;DHT22;2012;49.794;9.722;2023-07-13T08:54:29;22.90;89.10
3996;DHT22;2012;49.794;9.722;2023-07-13T08:56:59;22.90;85.40
3996;DHT22;2012;49.794;9.722;2023-07-13T08:59:30;22.90;85.80
3996;DHT22;2012;49.794;9.722;2023-07-13T09:02:08;23.00;85.90
3996;DHT22;2012;49.794;9.722;2023-07-13T09:04:42;23.20;85.50
3996;DHT22;2012;49.794;9.722;2023-07-13T09:10:28;23.30;81.70
3996;DHT22;2012;49.794;9.722;2023-07-13T09:15:47;23.50;82.50
3996;DHT22;2012;49.794;9.722;2023-07-13T09:18:37;23.50;84.50
3996;DHT22;2012;49.794;9.722;2023-07-13T09:21:09;23.60;85.10
3996;DHT22;2012;49.794;9.722;2023-07-13T09:23:37;23.60;81.10
3996;DHT22;2012;49.794;9.722;2023-07-13T09:26:19;23.60;80.80
3996;DHT22;2012;49.794;9.722;2023-07-13T09:29:06;23.80;82.70
3996;DHT22;2012;49.794;9.722;2023-07-13T09:31:42;23.80;80.10
3996;DHT22;2012;49.794;9.722;2023-07-13T09:34:13;23.70;79.80
3996;DHT22;2012;49.794;9.722;2023-07-13T09:36:40;23.60;78.90
3996;DHT22;2012;49.794;9.722;2023-07-13T09:39:29;23.90;81.50
3996;DHT22;2012;49.794;9.722;2023-07-13T09:44:54;23.90;79.20
3996;DHT22;2012;49.794;9.722;2023-07-13T09:47:27;24.00;78.90
3996;DHT22;2012;49.794;9.722;2023-07-13T09:49:56;23.80;80.80
3996;DHT22;2012;49.794;9.722;2023-07-13T09:52:46;24.20;82.70
3996;DHT22;2012;49.794;9.722;2023-07-13T09:57:52;24.20;77.80
3996;DHT22;2012;49.794;9.722;2023-07-13T10:00:22;24.00;77.90
3996;DHT22;2012;49.794;9.722;2023-07-13T10:03:04;24.40;80.30
3996;DHT22;2012;49.794;9.722;2023-07-13T10:05:38;24.70;79.80
3996;DHT22;2012;49.794;9.722;2023-07-13T10:08:05;24.80;78.10
3996;DHT22;2012;49.794;9.722;2023-07-13T10:10:34;24.70;77.80
3996;DHT22;2012;49.794;9.722;2023-07-13T10:13:02;24.50;75.50
3996;DHT22;2012;49.794;9.722;2023-07-13T10:15:32;24.60;74.50
3996;DHT22;2012;49.794;9.722;2023-07-13T10:18:00;24.70;73.60
3996;DHT22;2012;49.794;9.722;2023-07-13T10:20:27;24.40;72.40
3996;DHT22;2012;49.794;9.722;2023-07-13T10:23:13;24.60;73.40
3996;DHT22;2012;49.794;9.722;2023-07-13T10:25:43;24.80;72.10
3996;DHT22;2012;49.794;9.722;2023-07-13T10:28:31;24.80;71.50
3996;DHT22;2012;49.794;9.722;2023-07-13T10:31:01;24.90;71.00
3996;DHT22;2012;49.794;9.722;2023-07-13T10:33:29;25.00;69.60
3996;DHT22;2012;49.794;9.722;2023-07-13T10:36:28;25.10;68.70
3996;DHT22;2012;49.794;9.722;2023-07-13T10:39:00;25.00;66.60
3996;DHT22;2012;49.794;9.722;2023-07-13T10:41:30;25.10;70.20
3996;DHT22;2012;49.794;9.722;2023-07-13T10:43:59;25.50;70.30
3996;DHT22;2012;49.794;9.722;2023-07-13T10:46:27;25.50;68.10
3996;DHT22;2012;49.794;9.722;2023-07-13T10:48:58;25.70;69.40
3996;DHT22;2012;49.794;9.722;2023-07-13T10:51:27;25.60;66.70
3996;DHT22;2012;49.794;9.722;2023-07-13T10:54:21;25.60;67.00
3996;DHT22;2012;49.794;9.722;2023-07-13T11:00:17;25.70;68.90
3996;DHT22;2012;49.794;9.722;2023-07-13T11:02:56;26.20;67.90
3996;DHT22;2012;49.794;9.722;2023-07-13T11:05:30;25.90;63.90
3996;DHT22;2012;49.794;9.722;2023-07-13T11:08:33;25.40;66.00
3996;DHT22;2012;49.794;9.722;2023-07-13T11:11:00;25.40;67.70
3996;DHT22;2012;49.794;9.722;2023-07-13T11:13:55;25.30;66.80
3996;DHT22;2012;49.794;9.722;2023-07-13T11:19:23;25.40;66.70
3996;DHT22;2012;49.794;9.722;2023-07-13T11:35:35;25.80;64.50
3996;DHT22;2012;49.794;9.722;2023-07-13T11:38:03;25.70;65.90
3996;DHT22;2012;49.794;9.722;2023-07-13T11:40:38;25.30;65.60
3996;DHT22;2012;49.794;9.722;2023-07-13T11:43:06;25.70;68.10
3996;DHT22;2012;49.794;9.722;2023-07-13T11:45:34;25.90;65.90
3996;DHT22;2012;49.794;9.722;2023-07-13T11:50:54;25.70;65.70
3996;DHT22;2012;49.794;9.722;2023-07-13T11:53:26;25.60;63.80
3996;DHT22;2012;49.794;9.722;2023-07-13T11:55:53;25.40;64.80
3996;DHT22;2012;49.794;9.722;2023-07-13T11:58:24;25.60;66.40
3996;DHT22;2012;49.794;9.722;2023-07-13T12:00:52;25.70;65.50
3996;DHT22;2012;49.794;9.722;2023-07-13T12:03:22;25.70;65.80
3996;DHT22;2012;49.794;9.722;2023-07-13T12:06:03;25.80;63.70
3996;DHT22;2012;49.794;9.722;2023-07-13T12:08:38;25.80;63.30
3996;DHT22;2012;49.794;9.722;2023-07-13T12:11:15;25.70;63.40
3996;DHT22;2012;49.794;9.722;2023-07-13T12:13:45;25.40;63.80
3996;DHT22;2012;49.794;9.722;2023-07-13T12:18:52;25.60;64.10
3996;DHT22;2012;49.794;9.722;2023-07-13T12:21:23;25.70;64.80
3996;DHT22;2012;49.794;9.722;2023-07-13T12:23:52;25.80;62.70
3996;DHT22;2012;49.794;9.722;2023-07-13T12:26:19;26.10;63.30
3996;DHT22;2012;49.794;9.722;2023-07-13T12:28:48;26.30;61.90
3996;DHT22;2012;49.794;9.722;2023-07-13T12:31:31;26.20;60.90
3996;DHT22;2012;49.794;9.722;2023-07-13T12:34:07;26.00;60.80
3996;DHT22;2012;49.794;9.722;2023-07-13T12:36:37;25.80;61.70
3996;DHT22;2012;49.794;9.722;2023-07-13T12:39:13;25.70;60.10
3996;DHT22;2012;49.794;9.722;2023-07-13T12:41:41;25.90;61.80
3996;DHT22;2012;49.794;9.722;2023-07-13T12:44:14;26.30;62.60
3996;DHT22;2012;49.794;9.722;2023-07-13T12:46:53;26.70;61.20
3996;DHT22;2012;49.794;9.722;2023-07-13T12:49:24;26.30;59.80
3996;DHT22;2012;49.794;9.722;2023-07-13T12:51:57;25.80;60.80
3996;DHT22;2012;49.794;9.722;2023-07-13T12:54:27;25.80;62.00
3996;DHT22;2012;49.794;9.722;2023-07-13T12:56:55;25.90;62.10
3996;DHT22;2012;49.794;9.722;2023-07-13T12:59:29;26.10;62.90
3996;DHT22;2012;49.794;9.722;2023-07-13T13:01:56;26.10;60.70
3996;DHT22;2012;49.794;9.722;2023-07-13T13:04:23;26.20;61.10
3996;DHT22;2012;49.794;9.722;2023-07-13T13:07:01;25.90;59.80
3996;DHT22;2012;49.794;9.722;2023-07-13T13:09:28;26.10;61.10
3996;DHT22;2012;49.794;9.722;2023-07-13T13:11:55;26.10;61.10
3996;DHT22;2012;49.794;9.722;2023-07-13T13:14:22;26.10;61.80
3996;DHT22;2012;49.794;9.722;2023-07-13T13:16:50;26.40;62.10
3996;DHT22;2012;49.794;9.722;2023-07-13T13:19:24;26.30;61.80
3996;DHT22;2012;49.794;9.722;2023-07-13T13:21:53;26.40;60.40
3996;DHT22;2012;49.794;9.722;2023-07-13T13:24:23;26.30;61.80
3996;DHT22;2012;49.794;9.722;2023-07-13T13:26:51;26.30;62.40
3996;DHT22;2012;49.794;9.722;2023-07-13T13:29:24;26.20;61.90
3996;DHT22;2012;49.794;9.722;2023-07-13T13:31:52;26.20;62.20
3996;DHT22;2012;49.794;9.722;2023-07-13T13:34:20;26.10;60.70
3996;DHT22;2012;49.794;9.722;2023-07-13T13:36:50;26.10;60.60
3996;DHT22;2012;49.794;9.722;2023-07-13T13:39:24;26.10;60.90
3996;DHT22;2012;49.794;9.722;2023-07-13T13:41:52;26.30;61.30
3996;DHT22;2012;49.794;9.722;2023-07-13T13:44:21;26.50;58.40
3996;DHT22;2012;49.794;9.722;2023-07-13T13:46:51;26.60;57.80
3996;DHT22;2012;49.794;9.722;2023-07-13T13:49:21;26.60;57.90
3996;DHT22;2012;49.794;9.722;2023-07-13T13:51:48;26.30;58.70
3996;DHT22;2012;49.794;9.722;2023-07-13T13:54:18;25.60;57.70
3996;DHT22;2012;49.794;9.722;2023-07-13T13:56:47;25.20;59.40
3996;DHT22;2012;49.794;9.722;2023-07-13T13:59:14;25.60;60.50
3996;DHT22;2012;49.794;9.722;2023-07-13T14:01:46;25.80;60.00
3996;DHT22;2012;49.794;9.722;2023-07-13T14:04:18;25.90;59.20
3996;DHT22;2012;49.794;9.722;2023-07-13T14:06:45;26.00;59.90
3996;DHT22;2012;49.794;9.722;2023-07-13T14:09:18;26.10;60.30
3996;DHT22;2012;49.794;9.722;2023-07-13T14:11:47;26.20;59.60
3996;DHT22;2012;49.794;9.722;2023-07-13T14:14:20;26.10;60.20
3996;DHT22;2012;49.794;9.722;2023-07-13T14:16:49;26.00;59.00
3996;DHT22;2012;49.794;9.722;2023-07-13T14:19:21;25.90;60.30
3996;DHT22;2012;49.794;9.722;2023-07-13T14:21:48;26.00;61.00
3996;DHT22;2012;49.794;9.722;2023-07-13T14:24:16;26.10;60.90
3996;DHT22;2012;49.794;9.722;2023-07-13T14:26:45;26.00;59.20
3996;DHT22;2012;49.794;9.722;2023-07-13T14:29:17;25.90;58.80
3996;DHT22;2012;49.794;9.722;2023-07-13T14:31:49;25.90;57.80
3996;DHT22;2012;49.794;9.722;2023-07-13T14:34:16;26.30;58.50
3996;DHT22;2012;49.794;9.722;2023-07-13T14:36:46;26.50;57.10
3996;DHT22;2012;49.794;9.722;2023-07-13T14:39:19;26.50;56.60
3996;DHT22;2012;49.794;9.722;2023-07-13T14:41:48;26.60;57.20
3996;DHT22;2012;49.794;9.722;2023-07-13T14:44:19;26.50;59.00
3996;DHT22;2012;49.794;9.722;2023-07-13T14:46:47;26.60;59.00
3996;DHT22;2012;49.794;9.722;2023-07-13T14:49:31;26.30;57.60
3996;DHT22;2012;49.794;9.722;2023-07-13T14:52:00;26.40;58.80
3996;DHT22;2012;49.794;9.722;2023-07-13T14:54:28;26.30;57.80
3996;DHT22;2012;49.794;9.722;2023-07-13T14:56:55;26.30;56.90
3996;DHT22;2012;49.794;9.722;2023-07-13T14:59:21;26.40;57.10
3996;DHT22;2012;49.794;9.722;2023-07-13T15:01:50;26.70;57.40
3996;DHT22;2012;49.794;9.722;2023-07-13T15:04:17;26.80;57.00
3996;DHT22;2012;49.794;9.722;2023-07-13T15:07:00;26.60;57.00
3996;DHT22;2012;49.794;9.722;2023-07-13T15:09:28;26.40;56.70
3996;DHT22;2012;49.794;9.722;2023-07-13T15:11:57;26.40;57.20
3996;DHT22;2012;49.794;9.722;2023-07-13T15:14:25;26.20;56.40
3996;DHT22;2012;49.794;9.722;2023-07-13T15:16:55;26.00;55.90
3996;DHT22;2012;49.794;9.722;2023-07-13T15:19:23;26.10;57.00
3996;DHT22;2012;49.794;9.722;2023-07-13T15:21:50;26.40;57.40
3996;DHT22;2012;49.794;9.722;2023-07-13T15:24:19;26.50;55.90
3996;DHT22;2012;49.794;9.722;2023-07-13T15:26:48;26.30;56.50
3996;DHT22;2012;49.794;9.722;2023-07-13T15:29:16;26.10;56.10
3996;DHT22;2012;49.794;9.722;2023-07-13T15:31:44;26.00;57.50
3996;DHT22;2012;49.794;9.722;2023-07-13T15:34:14;26.10;57.30
3996;DHT22;2012;49.794;9.722;2023-07-13T15:36:41;25.90;58.00
3996;DHT22;2012;49.794;9.722;2023-07-13T15:39:14;26.00;57.70
3996;DHT22;2012;49.794;9.722;2023-07-13T15:41:43;26.00;58.20
3996;DHT22;2012;49.794;9.722;2023-07-13T15:44:40;26.10;56.90
3996;DHT22;2012;49.794;9.722;2023-07-13T15:47:11;26.10;57.50
3996;DHT22;2012;49.794;9.722;2023-07-13T15:49:39;26.20;58.00
3996;DHT22;2012;49.794;9.722;2023-07-13T15:52:16;26.10;58.30
3996;DHT22;2012;49.794;9.722;2023-07-13T15:54:46;26.10;57.30
3996;DHT22;2012;49.794;9.722;2023-07-13T15:57:14;26.10;56.90
3996;DHT22;2012;49.794;9.722;2023-07-13T15:59:41;26.00;57.70
3996;DHT22;2012;49.794;9.722;2023-07-13T16:02:16;26.00;58.30
3996;DHT22;2012;49.794;9.722;2023-07-13T16:04:43;26.00;57.30
3996;DHT22;2012;49.794;9.722;2023-07-13T16:07:11;26.20;57.90
3996;DHT22;2012;49.794;9.722;2023-07-13T16:09:39;26.20;57.10
3996;DHT22;2012;49.794;9.722;2023-07-13T16:12:14;26.30;58.00
3996;DHT22;2012;49.794;9.722;2023-07-13T16:14:42;26.20;57.70
3996;DHT22;2012;49.794;9.722;2023-07-13T16:17:11;26.20;57.30
3996;DHT22;2012;49.794;9.722;2023-07-13T16:19:38;26.10;57.50
3996;DHT22;2012;49.794;9.722;2023-07-13T16:22:08;26.00;57.10
3996;DHT22;2012;49.794;9.722;2023-07-13T16:24:39;25.90;57.50
3996;DHT22;2012;49.794;9.722;2023-07-13T16:27:09;26.00;58.20
3996;DHT22;2012;49.794;9.722;2023-07-13T16:29:36;26.30;58.40
3996;DHT22;2012;49.794;9.722;2023-07-13T16:34:36;26.20;58.20
3996;DHT22;2012;49.794;9.722;2023-07-13T16:37:13;26.30;58.10
3996;DHT22;2012;49.794;9.722;2023-07-13T16:39:47;26.30;57.50
3996;DHT22;2012;49.794;9.722;2023-07-13T16:42:14;26.10;56.10
3996;DHT22;2012;49.794;9.722;2023-07-13T16:44:41;26.00;56.60
3996;DHT22;2012;49.794;9.722;2023-07-13T16:47:14;25.80;58.10
3996;DHT22;2012;49.794;9.722;2023-07-13T16:49:43;25.90;58.00
3996;DHT22;2012;49.794;9.722;2023-07-13T16:52:15;26.00;57.30
3996;DHT22;2012;49.794;9.722;2023-07-13T16:54:48;25.90;56.00
3996;DHT22;2012;49.794;9.722;2023-07-13T16:57:18;25.80;56.70
3996;DHT22;2012;49.794;9.722;2023-07-13T16:59:46;25.90;57.30
3996;DHT22;2012;49.794;9.722;2023-07-13T17:02:37;25.80;57.00
3996;DHT22;2012;49.794;9.722;2023-07-13T17:05:09;25.70;57.30